createdAt,value
2018-12-08T00:03:33.770Z,99940.46
2018-12-08T00:07:38.043Z,99938.50
2018-12-08T00:11:42.498Z,99959.81
2018-12-08T00:15:46.708Z,99952.50
2018-12-08T00:19:50.821Z,99953.94
2018-12-08T00:23:54.931Z,99954.61
2018-12-08T00:27:58.983Z,99954.60
2018-12-08T00:32:02.984Z,99961.28
2018-12-08T00:36:07.011Z,99960.86
2018-12-08T00:40:11.001Z,99948.05
2018-12-08T00:44:15.097Z,99951.31
2018-12-08T00:48:19.223Z,99962.81
2018-12-08T00:52:23.518Z,99946.70
2018-12-08T00:56:27.513Z,99971.38
2018-12-08T01:00:38.312Z,99957.19
2018-12-08T01:04:42.327Z,99954.05
2018-12-08T01:08:46.346Z,99943.95
2018-12-08T01:12:50.388Z,99955.06
2018-12-08T01:16:54.383Z,99958.45
2018-12-08T01:20:58.422Z,99960.39
2018-12-08T01:25:02.427Z,99968.25
2018-12-08T01:29:06.431Z,99977.68
2018-12-08T01:33:12.624Z,99968.25
2018-12-08T01:37:18.734Z,99953.84
2018-12-08T01:41:22.850Z,99965.30
2018-12-08T01:45:28.150Z,99969.36
2018-12-08T01:49:33.140Z,99966.52
2018-12-08T01:53:37.106Z,99956.56
2018-12-08T01:57:41.266Z,99963.52
2018-12-08T02:01:45.337Z,99943.74
2018-12-08T02:05:49.308Z,99941.94
2018-12-08T02:09:54.240Z,99937.73
2018-12-08T02:13:58.255Z,99922.95
2018-12-08T02:18:02.224Z,99939.70
2018-12-08T02:22:24.856Z,99934.79
2018-12-08T02:35:55.895Z,99908.89
2018-12-08T02:40:14.189Z,99921.73
2018-12-08T02:44:39.593Z,99909.91
2018-12-08T02:48:55.188Z,99907.41
2018-12-08T02:53:31.644Z,99901.63
2018-12-08T02:57:35.747Z,99896.16
2018-12-08T03:06:01.964Z,99881.48
2018-12-08T03:10:06.463Z,99895.85
2018-12-08T03:14:10.524Z,99872.13
2018-12-08T03:18:19.511Z,99859.34
2018-12-08T03:22:28.273Z,99857.92
2018-12-08T03:26:36.976Z,99860.34
2018-12-08T03:30:41.452Z,99843.03
2018-12-08T03:34:46.157Z,99848.48
2018-12-08T03:39:04.092Z,99842.66
2018-12-08T03:43:20.213Z,99828.61
2018-12-08T03:47:25.093Z,99844.54
2018-12-08T03:51:32.208Z,99855.05
2018-12-08T03:55:39.821Z,99824.39
2018-12-08T03:59:44.147Z,99836.19
2018-12-08T04:03:48.312Z,99831.05
2018-12-08T04:07:52.336Z,99833.63
2018-12-08T04:11:56.308Z,99832.33
2018-12-08T04:16:00.274Z,99810.45
2018-12-08T04:20:04.812Z,99820.19
2018-12-08T04:24:08.862Z,99825.63
2018-12-08T04:28:12.877Z,99846.48
2018-12-08T04:32:16.927Z,99792.92
2018-12-08T04:36:20.987Z,99821.60
2018-12-08T04:40:25.016Z,99843.45
2018-12-08T04:44:29.035Z,99837.67
2018-12-08T04:48:35.028Z,99826.10
2018-12-08T04:52:39.027Z,99804.27
2018-12-08T04:56:43.096Z,99795.17
2018-12-08T05:00:47.119Z,99794.61
2018-12-08T05:04:51.094Z,99821.98
2018-12-08T05:08:55.116Z,99799.30
2018-12-08T05:12:59.363Z,99800.23
2018-12-08T05:17:03.327Z,99819.11
2018-12-08T05:21:07.376Z,99798.58
2018-12-08T05:25:11.425Z,99790.14
2018-12-08T05:29:15.516Z,99785.55
2018-12-08T05:33:19.683Z,99779.74
2018-12-08T05:37:23.774Z,99790.05
2018-12-08T05:41:32.004Z,99781.23
2018-12-08T05:45:36.108Z,99808.67
2018-12-08T05:49:40.218Z,99818.87
2018-12-08T05:53:44.183Z,99824.83
2018-12-08T05:57:49.342Z,99822.48
2018-12-08T06:01:54.410Z,99800.75
2018-12-08T06:05:59.453Z,99790.73
2018-12-08T06:10:03.921Z,99830.31
2018-12-08T06:14:07.916Z,99792.08
2018-12-08T06:18:12.039Z,99783.64
2018-12-08T06:22:18.155Z,99791.14
2018-12-08T06:26:22.816Z,99788.86
2018-12-08T06:30:26.846Z,99786.88
2018-12-08T06:34:30.912Z,99767.77
2018-12-08T06:38:34.875Z,99770.12
2018-12-08T06:42:39.947Z,99767.87
2018-12-08T06:46:44.955Z,99763.84
2018-12-08T06:50:49.131Z,99772.73
2018-12-08T06:54:53.241Z,99770.40
2018-12-08T06:58:57.208Z,99775.73
2018-12-08T07:03:01.177Z,99755.13
2018-12-08T07:07:05.298Z,99755.13
2018-12-08T07:11:09.333Z,99739.53
2018-12-08T07:15:13.300Z,99737.47
2018-12-08T07:19:17.283Z,99755.63
2018-12-08T07:23:21.290Z,99740.75
2018-12-08T07:27:26.459Z,99765.19
2018-12-08T07:31:30.471Z,99740.00
2018-12-08T07:35:34.510Z,99750.50
2018-12-08T07:39:38.543Z,99772.65
2018-12-08T07:43:42.554Z,99736.77
2018-12-08T07:47:46.534Z,99739.61
2018-12-08T07:51:50.562Z,99754.69
2018-12-08T07:55:54.504Z,99753.19
2018-12-08T07:59:58.615Z,99750.66
2018-12-08T08:04:02.715Z,99726.88
2018-12-08T08:08:06.844Z,99731.38
2018-12-08T08:12:11.882Z,99727.70
2018-12-08T08:16:15.845Z,99731.47
2018-12-08T08:20:20.892Z,99733.63
2018-12-08T08:24:24.905Z,99766.33
2018-12-08T08:28:28.918Z,99719.84
2018-12-08T08:32:33.058Z,99719.64
2018-12-08T08:36:37.107Z,99737.25
2018-12-08T08:40:41.236Z,99713.89
2018-12-08T08:44:45.266Z,99731.23
2018-12-08T08:48:49.223Z,99742.95
2018-12-08T08:52:53.283Z,99707.96
2018-12-08T08:56:57.220Z,99737.70
2018-12-08T09:01:01.402Z,99713.22
2018-12-08T09:05:06.573Z,99714.41
2018-12-08T09:09:10.615Z,99717.97
2018-12-08T09:13:14.574Z,99711.84
2018-12-08T09:17:18.523Z,99716.63
2018-12-08T09:21:22.495Z,99722.35
2018-12-08T09:25:26.608Z,99725.98
2018-12-08T09:29:30.589Z,99749.07
2018-12-08T09:33:34.721Z,99716.59
2018-12-08T09:37:38.711Z,99715.84
2018-12-08T09:41:42.888Z,99718.10
2018-12-08T09:45:46.934Z,99715.84
2018-12-08T09:49:50.932Z,99720.83
2018-12-08T09:53:54.909Z,99726.52
2018-12-08T09:57:58.931Z,99711.28
2018-12-08T10:02:02.975Z,99707.78
2018-12-08T10:06:08.974Z,99726.81
2018-12-08T10:10:14.480Z,99770.06
2018-12-08T10:14:18.459Z,99720.23
2018-12-08T10:18:22.451Z,99720.69
2018-12-08T10:22:28.010Z,99739.53
2018-12-08T10:26:32.195Z,99734.63
2018-12-08T10:30:36.250Z,99738.69
2018-12-08T10:34:41.318Z,99730.69
2018-12-08T10:38:45.401Z,99731.16
2018-12-08T10:42:49.423Z,99736.05
2018-12-08T10:46:53.490Z,99744.38
2018-12-08T10:50:57.494Z,99745.50
2018-12-08T10:55:03.635Z,99737.61
2018-12-08T10:59:07.551Z,99722.41
2018-12-08T11:03:17.129Z,99742.59
2018-12-08T11:07:21.258Z,99727.91
2018-12-08T11:11:25.352Z,99769.73
2018-12-08T11:15:29.307Z,99727.55
2018-12-08T11:19:33.326Z,99778.39
2018-12-08T11:23:38.435Z,99755.66
2018-12-08T11:27:42.775Z,99747.84
2018-12-08T11:31:46.934Z,99753.67
2018-12-08T11:35:50.882Z,99766.31
2018-12-08T11:39:54.919Z,99773.09
2018-12-08T11:43:59.011Z,99759.09
2018-12-08T11:48:04.187Z,99744.52
2018-12-08T11:52:08.160Z,99733.52
2018-12-08T11:56:12.208Z,99745.84
2018-12-08T12:00:16.211Z,99741.50
2018-12-08T12:04:20.261Z,99722.66
2018-12-08T12:08:24.558Z,99761.43
2018-12-08T12:12:28.755Z,99732.98
2018-12-08T12:16:32.714Z,99752.84
2018-12-08T12:20:36.754Z,99719.55
2018-12-08T12:24:40.775Z,99722.12
2018-12-08T12:28:44.781Z,99722.59
2018-12-08T12:32:48.808Z,99726.94
2018-12-08T12:36:52.835Z,99745.52
2018-12-08T12:41:59.707Z,99718.09
2018-12-08T12:46:03.789Z,99719.59
2018-12-08T12:50:07.874Z,99722.70
2018-12-08T12:54:11.920Z,99727.34
2018-12-08T12:58:15.952Z,99719.08
2018-12-08T13:02:20.083Z,99723.39
2018-12-08T13:06:24.335Z,99716.70
2018-12-08T13:10:28.382Z,99719.88
2018-12-08T13:14:32.464Z,99716.59
2018-12-08T13:18:36.529Z,99722.55
2018-12-08T13:22:40.588Z,99723.61
2018-12-08T13:26:44.681Z,99724.45
2018-12-08T13:30:48.784Z,99716.48
2018-12-08T13:34:52.855Z,99716.08
2018-12-08T13:38:56.916Z,99707.99
2018-12-08T13:43:01.007Z,99703.64
2018-12-08T13:47:05.128Z,99703.59
2018-12-08T13:51:09.292Z,99715.09
2018-12-08T13:55:13.363Z,99708.38
2018-12-08T13:59:17.354Z,99710.50
2018-12-08T14:03:22.511Z,99716.53
2018-12-08T14:07:26.584Z,99693.88
2018-12-08T14:11:30.570Z,99704.19
2018-12-08T14:15:34.543Z,99694.47
2018-12-08T14:19:38.518Z,99688.58
2018-12-08T14:23:42.595Z,99677.09
2018-12-08T14:27:47.072Z,99713.11
2018-12-08T14:31:51.380Z,99683.19
2018-12-08T14:35:55.327Z,99691.73
2018-12-08T14:39:59.368Z,99687.53
2018-12-08T14:44:03.473Z,99683.69
2018-12-08T14:48:07.614Z,99671.72
2018-12-08T14:52:11.619Z,99684.00
2018-12-08T14:56:15.648Z,99662.07
2018-12-08T15:00:19.715Z,99655.73
2018-12-08T15:04:23.678Z,99672.25
2018-12-08T15:08:27.694Z,99686.29
2018-12-08T15:12:31.730Z,99669.50
2018-12-08T15:16:35.743Z,99653.91
2018-12-08T15:20:39.777Z,99648.23
2018-12-08T15:24:43.908Z,99645.82
2018-12-08T15:30:17.074Z,99650.06
2018-12-08T15:34:21.233Z,99650.87
2018-12-08T15:38:25.467Z,99632.80
2018-12-08T15:42:29.463Z,99665.70
2018-12-08T15:46:33.566Z,99627.39
2018-12-08T15:50:37.647Z,99623.19
2018-12-08T15:54:41.635Z,99618.72
2018-12-08T15:58:45.755Z,99620.87
2018-12-08T16:02:49.844Z,99603.81
2018-12-08T16:06:54.056Z,99596.84
2018-12-08T16:10:58.031Z,99591.36
2018-12-08T16:15:01.942Z,99602.86
2018-12-08T16:19:05.906Z,99567.90
2018-12-08T16:23:09.935Z,99581.91
2018-12-08T16:27:13.980Z,99569.72
2018-12-08T16:31:18.383Z,99568.30
2018-12-08T16:35:22.515Z,99574.04
2018-12-08T16:39:26.730Z,99561.55
2018-12-08T16:43:30.770Z,99555.47
2018-12-08T16:47:34.831Z,99546.49
2018-12-08T16:51:38.996Z,99530.42
2018-12-08T16:55:44.130Z,99539.93
2018-12-08T16:59:48.183Z,99521.09
2018-12-08T17:03:52.325Z,99519.30
2018-12-08T17:07:56.372Z,99505.84
2018-12-08T17:12:00.439Z,99492.64
2018-12-08T17:16:04.591Z,99472.23
2018-12-08T17:20:10.609Z,99459.02
2018-12-08T17:24:14.647Z,99450.26
2018-12-08T17:28:18.728Z,99439.67
2018-12-08T17:32:22.728Z,99419.84
2018-12-08T17:36:26.814Z,99416.13
2018-12-08T17:40:30.995Z,99402.75
2018-12-08T17:44:35.097Z,99398.84
2018-12-08T17:48:39.067Z,99387.67
2018-12-08T17:52:43.155Z,99364.64
2018-12-08T17:56:47.285Z,99364.58
2018-12-08T18:00:51.364Z,99352.63
2018-12-08T18:04:55.331Z,99342.53
2018-12-08T18:08:59.546Z,99323.62
2018-12-08T18:13:03.560Z,99301.25
2018-12-08T18:17:07.611Z,99300.30
2018-12-08T18:21:11.674Z,99292.89
2018-12-08T18:25:15.694Z,99290.70
2018-12-08T18:29:19.711Z,99260.24
2018-12-08T18:33:23.790Z,99256.82
2018-12-08T18:37:27.860Z,99247.34
2018-12-08T18:41:31.959Z,99241.31
2018-12-08T18:45:35.943Z,99223.20
2018-12-08T18:49:40.023Z,99192.59
2018-12-08T18:53:44.134Z,99178.95
2018-12-08T18:57:48.048Z,99153.73
2018-12-08T19:01:52.076Z,99153.05
2018-12-08T19:05:56.056Z,99158.31
2018-12-08T19:10:00.022Z,99134.40
2018-12-08T19:14:04.088Z,99096.73
2018-12-08T19:18:08.062Z,99116.70
2018-12-08T19:22:12.086Z,99077.38
2018-12-08T19:26:16.075Z,99039.19
2018-12-08T19:30:21.096Z,99037.41
2018-12-08T19:34:25.164Z,99037.02
2018-12-08T19:38:29.151Z,99041.57
2018-12-08T19:42:33.127Z,99007.73
2018-12-08T19:46:37.188Z,99040.73
2018-12-08T19:50:41.224Z,99048.28
2018-12-08T19:54:45.263Z,99004.48
2018-12-08T19:58:49.512Z,98998.72
2018-12-08T20:02:53.466Z,98971.46
2018-12-08T20:06:58.563Z,98950.44
2018-12-08T20:12:05.569Z,98953.03
2018-12-08T20:16:09.560Z,98949.41
2018-12-08T20:20:13.686Z,98935.80
2018-12-08T20:24:17.739Z,98930.51
2018-12-08T20:28:21.699Z,98910.73
2018-12-08T20:32:25.791Z,98908.80
2018-12-08T20:36:29.770Z,98900.73
2018-12-08T20:40:33.819Z,98913.99
2018-12-08T20:44:37.851Z,98906.48
2018-12-08T20:48:42.015Z,98932.16
2018-12-08T20:58:38.047Z,98896.90
2018-12-08T21:02:42.078Z,98888.58
2018-12-08T21:06:46.180Z,98861.80
2018-12-08T21:10:50.239Z,98867.41
2018-12-08T21:14:54.215Z,98874.97
2018-12-08T21:18:59.231Z,98840.30
2018-12-08T21:23:03.378Z,98876.75
2018-12-08T21:27:07.412Z,98839.62
2018-12-08T21:31:11.524Z,98852.43
2018-12-08T21:35:15.464Z,98839.81
2018-12-08T21:39:19.507Z,98831.70
2018-12-08T21:44:05.060Z,98825.73
2018-12-08T21:48:09.112Z,98829.07
2018-12-08T21:52:13.219Z,98849.27
2018-12-08T21:56:17.182Z,98837.71
2018-12-08T22:00:21.183Z,98855.98
2018-12-08T22:04:25.239Z,98862.03
2018-12-08T22:08:29.298Z,98893.88
2018-12-08T22:12:33.310Z,98863.20
2018-12-08T22:16:37.484Z,98850.26
2018-12-08T22:20:41.443Z,98842.62
2018-12-08T22:24:45.600Z,98835.72
2018-12-08T22:28:49.610Z,98834.44
2018-12-08T22:32:53.652Z,98831.59
2018-12-08T22:36:57.766Z,98843.36
2018-12-08T22:41:02.394Z,98838.88
2018-12-08T22:45:07.129Z,98837.70
2018-12-08T22:49:11.400Z,98839.29
2018-12-08T22:53:15.425Z,98826.30
2018-12-08T22:57:19.546Z,98815.89
2018-12-08T23:01:24.967Z,98820.60
2018-12-08T23:05:29.359Z,98815.18
2018-12-08T23:09:33.471Z,98839.33
2018-12-08T23:13:38.287Z,98820.94
2018-12-08T23:17:42.417Z,98818.65
2018-12-08T23:21:46.655Z,98817.73
2018-12-08T23:40:16.724Z,98854.94
2018-12-08T23:44:23.077Z,98811.12
2018-12-08T23:48:27.331Z,98810.23
2018-12-08T23:52:31.359Z,98808.92
2018-12-08T23:56:35.385Z,98834.72
